Data for 01/16/2006

Time Sea-Level Adjusted Pressure Absolute Pressure Temperature Relative Humidity Dew Point   
(mb) (inHg) (mb) (inHg) (C) (F) (%) (C) (F)
00:05 1017 30.03 847 25.01 -5.2 22.7 65 -10.7 12.7
00:10 1017 30.03 847 25.01 -5.1 22.8 64 -10.9 12.4
00:15 1017 30.03 847 25.01 -5.2 22.6 65 -10.8 12.6
00:20 1017 30.03 847 25.01 -5.3 22.5 64 -11 12.2
00:25 1018 30.06 847 25.01 -5.3 22.4 64 -11.2 11.9
00:30 1018 30.06 847 25.01 -5.3 22.4 64 -11.1 12
00:35 1018 30.06 847 25.01 -5.3 22.4 63 -11.3 11.6
00:40 1018 30.06 847 25.01 -5.3 22.4 63 -11.4 11.5
00:45 1018 30.06 847 25.01 -5.4 22.3 62 -11.6 11.1
00:50 1018 30.06 847 25.01 -5.4 22.3 60 -12 10.3
00:55 1018 30.06 847 25.01 -5.4 22.3 59 -12.3 9.9
01:00 1018 30.06 847 25.01 -5.3 22.5 57 -12.5 9.4
01:05 1018 30.06 847 25.01 -5.3 22.5 57 -12.5 9.4
01:10 1018 30.06 847 25.01 -5.3 22.5 57 -12.6 9.3
01:15 1018 30.06 847 25.01 -5.3 22.5 56 -12.7 9.1
01:20 1018 30.06 847 25.01 -5.3 22.5 55 -13.1 8.5
01:25 1018 30.06 848 25.04 -5.3 22.5 54 -13.1 8.3
01:30 1018 30.06 848 25.04 -5.4 22.4 55 -13.1 8.4
01:35 1018 30.06 848 25.04 -5.4 22.3 54 -13.2 8.2
01:40 1018 30.06 848 25.04 -5.4 22.3 54 -13.4 7.9
01:45 1018 30.06 848 25.04 -5.4 22.3 53 -13.6 7.6
01:50 1018 30.06 848 25.04 -5.4 22.2 52 -13.7 7.3
01:55 1019 30.09 848 25.04 -5.4 22.2 52 -13.8 7.1
02:00 1019 30.09 848 25.04 -5.4 22.3 51 -13.9 7
02:05 1019 30.09 848 25.04 -5.4 22.2 52 -13.9 6.9
02:10 1019 30.09 848 25.04 -5.6 22 53 -13.7 7.3
02:15 1019 30.09 848 25.04 -5.8 21.6 53 -13.8 7.1
02:20 1019 30.09 848 25.04 -6 21.2 54 -14 6.8
02:25 1019 30.09 848 25.04 -6.2 20.8 54 -14.1 6.7
02:30 1019 30.09 848 25.04 -6.1 21 53 -14.2 6.4
02:35 1019 30.09 848 25.04 -5.7 21.7 52 -14.2 6.4
02:40 1019 30.09 848 25.04 -5.5 22.1 50 -14.3 6.2
02:45 1019 30.09 848 25.04 -5.4 22.3 50 -14.3 6.3
02:50 1019 30.09 848 25.04 -5.5 22.2 50 -14.2 6.4
02:55 1019 30.09 848 25.04 -5.5 22.1 50 -14.5 6
03:00 1019 30.09 848 25.04 -5.7 21.8 50 -14.5 6
03:05 1019 30.09 848 25.04 -6 21.3 50 -14.7 5.6
03:10 1019 30.09 848 25.04 -6.2 20.9 50 -15 4.9
03:15 1019 30.09 848 25.04 -6.1 21.1 49 -15.1 4.9
03:20 1019 30.09 848 25.04 -6.3 20.6 51 -15 5.1
03:25 1019 30.09 848 25.04 -7.5 18.5 55 -15.1 4.8
03:30 1019 30.09 848 25.04 -7.9 17.7 55 -15.5 4.1
03:35 1019 30.09 848 25.04 -7.7 18.1 55 -15.3 4.4
03:40 1019 30.09 848 25.04 -7.6 18.4 56 -14.9 5.1
03:45 1019 30.09 848 25.04 -7 19.4 56 -14.5 6
03:50 1019 30.09 848 25.04 -7.1 19.2 60 -13.7 7.3
03:55 1019 30.09 848 25.04 -6.8 19.7 58 -13.8 7.1
04:00 1019 30.09 848 25.04 -6.5 20.3 56 -13.8 7.2
04:05 1019 30.09 848 25.04 -6.5 20.2 56 -14 6.9
04:10 1019 30.09 848 25.04 -6.7 20 56 -14 6.8
04:15 1019 30.09 848 25.04 -6.7 19.9 56 -14.1 6.6
04:20 1019 30.09 848 25.04 -6.4 20.4 55 -14 6.7
04:25 1019 30.09 848 25.04 -6.3 20.6 54 -14.3 6.2
04:30 1019 30.09 848 25.04 -6.2 20.8 54 -14.2 6.5
04:35 1019 30.09 848 25.04 -6 21.2 54 -13.9 6.9
04:40 1019 30.09 848 25.04 -5.8 21.6 53 -14 6.8
04:45 1019 30.09 848 25.04 -5.8 21.6 52 -14.2 6.4
04:50 1019 30.09 848 25.04 -5.8 21.6 54 -13.8 7.2
04:55 1019 30.09 848 25.04 -5.7 21.7 52 -14.1 6.7
05:00 1019 30.09 848 25.04 -5.8 21.6 52 -14.2 6.4
05:05 1019 30.09 848 25.04 -5.5 22 51 -14.2 6.4
05:10 1019 30.09 848 25.04 -5.3 22.4 49 -14.4 6
05:15 1019 30.09 848 25.04 -5.3 22.4 51 -14 6.9
05:20 1019 30.09 848 25.04 -5.5 22.1 51 -14 6.7
05:25 1019 30.09 848 25.04 -5.5 22.1 51 -14.1 6.7
05:30 1019 30.09 848 25.04 -5.5 22.1 52 -13.9 7.1
05:35 1019 30.09 848 25.04 -5.4 22.2 53 -13.7 7.3
05:40 1019 30.09 848 25.04 -5.4 22.2 52 -13.9 7.1
05:45 1019 30.09 848 25.04 -5.4 22.3 51 -14 6.9
05:50 1019 30.09 848 25.04 -5.3 22.4 51 -14 6.8
05:55 1019 30.09 848 25.04 -5.3 22.5 50 -14.2 6.5
06:00 1019 30.09 848 25.04 -5.1 22.7 49 -14.2 6.5
06:05 1019 30.09 848 25.04 -5 23 47 -14.5 5.8
06:10 1019 30.09 848 25.04 -5 23.1 50 -13.8 7.2
06:15 1019 30.09 848 25.04 -5.1 22.8 50 -13.9 7
06:20 1019 30.09 848 25.04 -5.3 22.5 50 -14.2 6.4
06:25 1019 30.09 848 25.04 -5.1 22.8 52 -13.5 7.7
06:30 1019 30.09 848 25.04 -5.2 22.6 52 -13.7 7.3
06:35 1019 30.09 848 25.04 -5.2 22.6 52 -13.5 7.7
06:40 1019 30.09 848 25.04 -5.5 22.1 55 -13.2 8.2
06:45 1019 30.09 848 25.04 -5.8 21.5 57 -13.1 8.4
06:50 1019 30.09 848 25.04 -5.8 21.5 56 -13.3 8
06:55 1019 30.09 848 25.04 -5.8 21.6 56 -13.3 8.1
07:00 1019 30.09 848 25.04 -5.8 21.5 55 -13.5 7.8
07:05 1019 30.09 848 25.04 -5.9 21.4 56 -13.4 7.8
07:10 1019 30.09 849 25.07 -6 21.2 55 -13.7 7.4
07:15 1019 30.09 849 25.07 -6.1 21.1 54 -13.9 6.9
07:20 1019 30.09 849 25.07 -6 21.2 55 -13.7 7.3
07:25 1019 30.09 849 25.07 -6 21.2 55 -13.7 7.3
07:30 1019 30.09 849 25.07 -6.1 21.1 55 -13.6 7.4
07:35 1019 30.09 849 25.07 -6 21.2 55 -13.8 7.2
07:40 1019 30.09 849 25.07 -6 21.2 54 -13.8 7.2
07:45 1019 30.09 849 25.07 -6.1 21.1 55 -13.8 7.2
07:50 1020 30.12 849 25.07 -6.3 20.7 55 -13.9 6.9
07:55 1020 30.12 849 25.07 -6.4 20.5 56 -13.8 7.2
08:00 1020 30.12 849 25.07 -6.5 20.3 56 -14 6.8
08:05 1020 30.12 849 25.07 -6.6 20.1 56 -14 6.8
08:10 1020 30.12 849 25.07 -6.6 20.2 56 -14 6.8
08:15 1020 30.12 849 25.07 -6.6 20.1 56 -14.1 6.7
08:20 1020 30.12 849 25.07 -6.6 20.1 55 -14.2 6.5
08:25 1020 30.12 849 25.07 -6.6 20.1 55 -14.3 6.3
08:30 1020 30.12 849 25.07 -6.6 20.2 55 -14.1 6.6
08:35 1020 30.12 850 25.1 -6.5 20.3 55 -14.2 6.4
08:40 1021 30.15 850 25.1 -6.6 20 55 -14.3 6.2
08:45 1021 30.15 850 25.1 -6.7 19.9 55 -14.3 6.3
08:50 1021 30.15 850 25.1 -6.7 19.9 54 -14.6 5.8
08:55 1021 30.15 850 25.1 -6.8 19.7 54 -14.6 5.7
09:00 1021 30.15 850 25.1 -7.1 19.2 55 -14.7 5.5
09:05 1021 30.15 850 25.1 -7.5 18.5 56 -14.8 5.3
09:10 1021 30.15 850 25.1 -7.4 18.6 54 -15.3 4.4
09:15 1021 30.15 850 25.1 -7 19.4 52 -15.3 4.4
09:20 1021 30.15 850 25.1 -6.7 20 51 -15.3 4.5
09:25 1021 30.15 850 25.1 -6.5 20.4 50 -15.2 4.7
09:30 1021 30.15 850 25.1 -6.2 20.9 49 -15.2 4.6
09:35 1021 30.15 850 25.1 -5.8 21.6 47 -15.3 4.5
09:40 1021 30.15 850 25.1 -5.4 22.2 47 -15.1 4.9
09:45 1021 30.15 850 25.1 -4.9 23.2 46 -14.8 5.4
09:50 1021 30.15 850 25.1 -4.2 24.5 43 -15.1 4.9
09:55 1021 30.15 850 25.1 -3.9 25 42 -15 5
10:00 1021 30.15 850 25.1 -3.5 25.7 41 -15 5
10:05 1021 30.15 850 25.1 -3 26.5 40 -14.8 5.3
10:10 1020 30.12 850 25.1 -3.1 26.4 40 -14.9 5.2
10:15 1020 30.12 850 25.1 -2.9 26.8 38 -15.4 4.3
10:20 1021 30.15 850 25.1 -2.6 27.4 38 -15 5
10:25 1021 30.15 850 25.1 -2.2 28.1 36 -15.3 4.4
10:30 1021 30.15 850 25.1 -2.1 28.2 36 -15.1 4.8
10:35 1021 30.15 850 25.1 -2 28.5 36 -15 4.9
10:40 1021 30.15 850 25.1 -1.1 30 35 -14.8 5.4
10:45 1021 30.15 850 25.1 -0.8 30.6 34 -14.7 5.6
10:50 1021 30.15 850 25.1 -0.6 30.9 34 -14.7 5.5
10:55 1021 30.15 850 25.1 -1 30.2 36 -14.3 6.2
11:00 1021 30.15 850 25.1 -2.2 28 40 -14 6.8
11:05 1021 30.15 850 25.1 -3.6 25.6 43 -14.3 6.2
11:10 1021 30.15 850 25.1 -3.2 26.3 41 -14.8 5.4
11:15 1021 30.15 850 25.1 -2.5 27.6 39 -14.6 5.7
11:20 1021 30.15 850 25.1 -1.7 28.9 36 -15 5
11:25 1021 30.15 850 25.1 -1.9 28.5 37 -14.9 5.2
11:30 1021 30.15 850 25.1 -1.4 29.4 35 -14.9 5.2
11:35 1021 30.15 850 25.1 -1 30.2 35 -14.8 5.4
11:40 1021 30.15 850 25.1 -0.9 30.5 34 -15 5.1
11:45 1021 30.15 850 25.1 -1.2 29.9 34 -15.3 4.4
11:50 1021 30.15 850 25.1 -1.2 29.8 35 -14.8 5.3
11:55 1021 30.15 850 25.1 -0.6 30.9 34 -14.5 5.9
12:00 1020 30.12 850 25.1 -0.3 31.4 33 -14.8 5.4
12:05 1020 30.12 850 25.1 -0.1 31.7 33 -14.7 5.6
12:10 1020 30.12 850 25.1 -0.3 31.5 34 -14.4 6.1
12:15 1020 30.12 850 25.1 -0.9 30.3 34 -14.9 5.3
12:20 1020 30.12 850 25.1 -1.1 30 35 -14.9 5.2
12:25 1020 30.12 850 25.1 -1 30.1 35 -14.7 5.5
12:30 1020 30.12 849 25.07 -1.3 29.7 38 -13.9 6.9
12:35 1020 30.12 849 25.07 -1.3 29.6 37 -14.4 6.2
12:40 1020 30.12 849 25.07 -1.2 29.9 37 -14.2 6.5
12:45 1020 30.12 849 25.07 -2 28.4 40 -13.8 7.1
12:50 1020 30.12 849 25.07 -1.7 28.9 40 -13.6 7.4
12:55 1020 30.12 849 25.07 -1.6 29.1 39 -14 6.8
13:00 1020 30.12 849 25.07 -1.8 28.8 37 -14.6 5.7
13:05 1020 30.12 849 25.07 -1.6 29.1 37 -14.5 6
13:10 1020 30.12 849 25.07 -1.8 28.7 39 -13.9 7
13:15 1020 30.12 849 25.07 -1.4 29.4 36 -14.7 5.5
13:20 1019 30.09 849 25.07 -0.6 31 34 -14.6 5.8
13:25 1020 30.12 849 25.07 -0.6 31 35 -14.4 6.1
13:30 1019 30.09 849 25.07 -0.9 30.4 35 -14.4 6.1
13:35 1019 30.09 849 25.07 -1.3 29.7 37 -14.2 6.5
13:40 1019 30.09 849 25.07 -1 30.2 36 -14.4 6.1
13:45 1019 30.09 849 25.07 -0.5 31.2 33 -14.8 5.3
13:50 1019 30.09 849 25.07 -0.1 31.8 33 -14.7 5.5
13:55 1019 30.09 849 25.07 0.2 32.4 31 -15.2 4.7
14:00 1019 30.09 849 25.07 -0.3 31.5 34 -14.5 5.8
14:05 1019 30.09 849 25.07 -0.6 30.9 33 -14.9 5.2
14:10 1019 30.09 849 25.07 -1 30.2 35 -14.5 5.8
14:15 1019 30.09 849 25.07 -0.7 30.8 33 -15 5
14:20 1019 30.09 849 25.07 -1.1 30 36 -14.4 6
14:25 1019 30.09 849 25.07 -0.6 30.9 33 -14.9 5.2
14:30 1019 30.09 849 25.07 -0.6 30.9 34 -14.7 5.5
14:35 1020 30.12 849 25.07 -0.3 31.5 34 -14.3 6.2
14:40 1020 30.12 849 25.07 -0.7 30.7 34 -14.9 5.1
14:45 1020 30.12 849 25.07 -1.1 30 34 -15.2 4.6
14:50 1020 30.12 849 25.07 -0.8 30.5 34 -15 5
14:55 1020 30.12 849 25.07 -1.2 29.8 35 -14.8 5.4
15:00 1020 30.12 849 25.07 -1.3 29.7 34 -15.2 4.6
15:05 1020 30.12 849 25.07 -0.6 30.9 33 -14.9 5.1
15:10 1020 30.12 849 25.07 -0.6 31 34 -14.7 5.6
15:15 1020 30.12 849 25.07 -1 30.3 34 -14.8 5.3
15:20 1020 30.12 849 25.07 -1 30.3 35 -14.6 5.8
15:25 1020 30.12 849 25.07 -1 30.2 38 -13.7 7.3
15:30 1020 30.12 849 25.07 -1.5 29.3 42 -12.9 8.8
15:35 1020 30.12 849 25.07 -2.8 27 45 -13.3 8.1
15:40 1020 30.12 849 25.07 -3.1 26.3 45 -13.6 7.5
15:45 1020 30.12 849 25.07 -3.2 26.3 43 -14 6.8
15:50 1020 30.12 849 25.07 -4 24.7 46 -14 6.8
15:55 1020 30.12 849 25.07 -4.2 24.5 46 -14.3 6.3
16:00 1020 30.12 849 25.07 -4 24.8 45 -14.3 6.3
16:05 1020 30.12 849 25.07 -4.1 24.7 47 -13.9 6.9
16:10 1020 30.12 849 25.07 -3.8 25.2 44 -14.2 6.4
16:15 1020 30.12 849 25.07 -4.7 23.5 48 -14.2 6.4
16:20 1020 30.12 849 25.07 -4.8 23.3 48 -14.3 6.3
16:25 1020 30.12 849 25.07 -4.7 23.6 48 -14.1 6.7
16:30 1020 30.12 849 25.07 -4.7 23.5 48 -14.2 6.5
16:35 1020 30.12 849 25.07 -4.4 24 46 -14.5 6
16:40 1020 30.12 849 25.07 -4.7 23.5 47 -14.5 5.9
16:45 1020 30.12 849 25.07 -5.1 22.9 48 -14.6 5.8
16:50 1020 30.12 849 25.07 -5.3 22.5 51 -14 6.8
16:55 1019 30.09 849 25.07 -5.2 22.6 50 -14 6.8
17:00 1019 30.09 849 25.07 -5.1 22.8 49 -14.3 6.3
17:05 1019 30.09 849 25.07 -4.9 23.1 50 -13.8 7.1
17:10 1019 30.09 849 25.07 -4.9 23.2 47 -14.4 6
17:15 1019 30.09 849 25.07 -4.8 23.3 49 -13.9 7
17:20 1019 30.09 849 25.07 -4.9 23.2 50 -13.9 7
17:25 1019 30.09 848 25.04 -5.1 22.9 49 -14.2 6.5
17:30 1019 30.09 848 25.04 -5.4 22.2 51 -14 6.8
17:35 1019 30.09 848 25.04 -5.4 22.2 52 -13.8 7.1
17:40 1019 30.09 848 25.04 -5.4 22.2 53 -13.6 7.6
17:45 1019 30.09 848 25.04 -5.4 22.3 54 -13.3 8
17:50 1019 30.09 848 25.04 -5.2 22.7 53 -13.3 8.1
17:55 1019 30.09 848 25.04 -5.7 21.8 56 -13.1 8.4
18:00 1019 30.09 848 25.04 -6.1 21 57 -13.4 7.9
18:05 1019 30.09 848 25.04 -6.7 20 56 -14.1 6.6
18:10 1019 30.09 848 25.04 -6.2 20.8 53 -14.3 6.2
18:15 1019 30.09 848 25.04 -6.3 20.7 54 -14.2 6.4
18:20 1019 30.09 848 25.04 -6 21.2 50 -14.8 5.4
18:25 1019 30.09 848 25.04 -5.8 21.5 51 -14.5 6
18:30 1019 30.09 848 25.04 -6 21.2 52 -14.3 6.2
18:35 1019 30.09 848 25.04 -6.2 20.9 54 -14.1 6.7
18:40 1019 30.09 848 25.04 -6 21.3 51 -14.6 5.7
18:45 1019 30.09 848 25.04 -5.6 21.8 54 -13.6 7.5
18:50 1019 30.09 848 25.04 -5.7 21.7 52 -14.2 6.5
18:55 1019 30.09 848 25.04 -5.5 22.1 49 -14.6 5.7
19:00 1019 30.09 848 25.04 -5.5 22.1 52 -13.9 7
19:05 1019 30.09 848 25.04 -5.7 21.8 53 -13.9 7
19:10 1019 30.09 848 25.04 -5.5 22 54 -13.4 7.9
19:15 1019 30.09 848 25.04 -5.6 21.9 59 -12.4 9.7
19:20 1019 30.09 848 25.04 -5.7 21.8 60 -12.3 9.9
19:25 1019 30.09 848 25.04 -6.1 21.1 63 -12 10.3
19:30 1019 30.09 848 25.04 -6 21.2 63 -11.9 10.6
19:35 1019 30.09 848 25.04 -5.9 21.4 62 -12 10.5
19:40 1019 30.09 848 25.04 -5.5 22.1 60 -12.2 10.1
19:45 1019 30.09 848 25.04 -5.8 21.5 63 -11.8 10.8
19:50 1019 30.09 848 25.04 -5.4 22.4 54 -13.3 8
19:55 1019 30.09 848 25.04 -5 23.1 53 -13.1 8.4
20:00 1019 30.09 848 25.04 -4.9 23.2 55 -12.6 9.2
20:05 1019 30.09 848 25.04 -5.1 22.8 54 -13 8.5
20:10 1019 30.09 848 25.04 -5 23 61 -11.5 11.3
20:15 1019 30.09 848 25.04 -5.2 22.6 56 -12.7 9.1
20:20 1019 30.09 848 25.04 -5 23 55 -12.6 9.3
20:25 1019 30.09 848 25.04 -5.1 22.9 60 -11.7 11
20:30 1019 30.09 848 25.04 -4.9 23.2 56 -12.4 9.7
20:35 1019 30.09 848 25.04 -4.7 23.5 56 -12.2 10
20:40 1019 30.09 848 25.04 -4.6 23.8 57 -11.8 10.8
20:45 1019 30.09 848 25.04 -4.4 24.1 58 -11.5 11.2
20:50 1019 30.09 848 25.04 -4.3 24.2 56 -11.9 10.6
20:55 1019 30.09 848 25.04 -4.4 24.1 53 -12.5 9.5
21:00 1019 30.09 848 25.04 -4.2 24.4 47 -14 6.9
21:05 1019 30.09 848 25.04 -3.9 24.9 48 -13.4 7.9
21:10 1019 30.09 848 25.04 -3.7 25.3 50 -12.7 9.2
21:15 1019 30.09 848 25.04 -3.7 25.4 45 -13.9 7
21:20 1019 30.09 848 25.04 -3.4 25.8 48 -13 8.6
21:25 1019 30.09 848 25.04 -3.1 26.5 50 -12.1 10.2
21:30 1019 30.09 848 25.04 -3.4 25.9 51 -12 10.3
21:35 1019 30.09 848 25.04 -3.4 25.8 52 -12 10.4
21:40 1019 30.09 848 25.04 -3.3 26 50 -12.3 9.8
21:45 1019 30.09 848 25.04 -3.1 26.5 50 -12.1 10.2
21:50 1019 30.09 848 25.04 -3 26.6 49 -12.4 9.7
21:55 1019 30.09 848 25.04 -3 26.6 48 -12.4 9.6
22:00 1019 30.09 848 25.04 -2.9 26.8 47 -12.7 9.2
22:05 1019 30.09 848 25.04 -3.1 26.4 55 -10.9 12.4
22:10 1019 30.09 848 25.04 -3.3 26.1 54 -11.2 11.8
22:15 1019 30.09 848 25.04 -3.2 26.2 56 -10.8 12.6
22:20 1019 30.09 848 25.04 -3.3 26.1 59 -10.3 13.5
22:25 1019 30.09 848 25.04 -3.7 25.3 59 -10.7 12.8
22:30 1019 30.09 848 25.04 -4 24.9 60 -10.7 12.8
22:35 1019 30.09 848 25.04 -4 24.7 57 -11.4 11.5
22:40 1019 30.09 848 25.04 -4 24.8 59 -10.8 12.6
22:45 1019 30.09 848 25.04 -3.6 25.5 59 -10.4 13.2
22:50 1019 30.09 848 25.04 -3.2 26.2 59 -10.1 13.8
22:55 1019 30.09 848 25.04 -3.3 26 58 -10.5 13.1
23:00 1019 30.09 848 25.04 -3.5 25.8 59 -10.3 13.4
23:05 1019 30.09 848 25.04 -3.4 25.8 58 -10.5 13.2
23:10 1019 30.09 848 25.04 -3.4 25.8 58 -10.5 13.1
23:15 1019 30.09 848 25.04 -3.5 25.7 64 -9.5 15
23:20 1019 30.09 848 25.04 -3.6 25.5 62 -9.9 14.2
23:25 1019 30.09 848 25.04 -3.6 25.6 62 -9.9 14.2
23:30 1019 30.09 848 25.04 -3.6 25.4 59 -10.5 13.1
23:35 1019 30.09 848 25.04 -3.9 25 59 -10.8 12.6
23:40 1019 30.09 848 25.04 -4.1 24.7 59 -11 12.2
23:45 1019 30.09 848 25.04 -4 24.7 60 -10.8 12.6
23:50 1019 30.09 848 25.04 -4 24.8 61 -10.4 13.2
23:55 1019 30.09 848 25.04 -3.9 24.9 62 -10.1 13.8
24:00 1019 30.09 848 25.04 -3.9 24.9 62 -10.2 13.7